Time;durP1;ratioP1;P1;durP2;ratioP2;P2;SDS_P1;SDS_P2;PMS_P1;PMS_P2;Temp;Humidity;BMP_temperature;BMP_pressure;BME280_temperature;BME280_humidity;BME280_pressure;Samples;Min_cycle;Max_cycle;Signal;HPM_P1;HPM_P2
2022/09/16 00:01:11;;;;;;;7.80;1.38;;;10.40;97.90;;;;;;5032250;28;20362;-72
2022/09/16 00:03:36;;;;;;;7.70;1.73;;;10.40;98.00;;;;;;5029920;28;20432;-70
2022/09/16 00:06:02;;;;;;;6.30;1.83;;;10.40;98.10;;;;;;5031220;28;20030;-70
2022/09/16 00:08:28;;;;;;;6.53;2.33;;;10.30;98.00;;;;;;5029719;28;20385;-71
2022/09/16 00:10:59;;;;;;;9.10;2.05;;;10.30;98.10;;;;;;5018473;28;20049;-72
2022/09/16 00:13:24;;;;;;;;;;;10.30;98.10;;;;;;5025623;28;20041;-71
2022/09/16 00:15:50;;;;;;;7.38;2.40;;;10.30;98.20;;;;;;5026972;28;19968;-71
2022/09/16 00:18:15;;;;;;;9.00;2.45;;;10.40;98.20;;;;;;5032715;28;20065;-72
2022/09/16 00:20:43;;;;;;;6.97;2.55;;;10.40;98.30;;;;;;5032119;28;20488;-71
2022/09/16 00:23:09;;;;;;;8.35;2.75;;;10.40;98.30;;;;;;5033508;28;20070;-72
2022/09/16 00:25:34;;;;;;;8.60;2.63;;;10.40;98.20;;;;;;5030788;28;20044;-71
2022/09/16 00:28:00;;;;;;;7.53;2.75;;;10.50;98.30;;;;;;5025089;28;20048;-71
2022/09/16 00:30:25;;;;;;;8.07;3.22;;;10.40;98.30;;;;;;5031876;28;20040;-71
2022/09/16 00:32:51;;;;;;;8.30;3.42;;;10.40;98.30;;;;;;5032804;28;20033;-71
2022/09/16 00:35:17;;;;;;;9.98;3.45;;;10.40;98.40;;;;;;5029697;28;20026;-71
2022/09/16 00:37:43;;;;;;;6.18;3.25;;;10.40;98.40;;;;;;5029559;28;20036;-72
2022/09/16 00:40:09;;;;;;;8.05;3.10;;;10.40;98.40;;;;;;5026318;28;20542;-71
2022/09/16 00:42:39;;;;;;;7.30;3.53;;;10.40;98.50;;;;;;5028037;28;20389;-71
2022/09/16 00:45:20;;;;;;;4.60;2.90;;;10.40;98.50;;;;;;5030941;28;20030;-70
2022/09/16 00:47:59;;;;;;;6.55;3.13;;;10.40;98.60;;;;;;5022625;28;20477;-70
2022/09/16 00:50:40;;;;;;;7.57;3.10;;;10.40;98.60;;;;;;5030656;28;20120;-70
2022/09/16 00:53:11;;;;;;;18.30;4.18;;;10.30;98.50;;;;;;5029119;28;20033;-71
2022/09/16 00:55:37;;;;;;;8.02;4.15;;;10.40;98.60;;;;;;5027738;28;20052;-70
2022/09/16 00:58:16;;;;;;;7.35;3.90;;;10.30;98.60;;;;;;5032402;28;20041;-71
2022/09/16 01:00:42;;;;;;;12.80;4.63;;;10.30;98.60;;;;;;5030209;28;20041;-72
2022/09/16 01:03:08;;;;;;;10.18;4.68;;;10.30;98.60;;;;;;5031255;28;20025;-70
2022/09/16 01:05:35;;;;;;;13.52;4.40;;;10.20;98.60;;;;;;5027350;28;20642;-71
2022/09/16 01:08:01;;;;;;;8.90;4.18;;;10.20;98.60;;;;;;5025448;28;20025;-71
2022/09/16 01:10:27;;;;;;;11.30;4.40;;;10.10;98.50;;;;;;5024315;28;20087;-71
2022/09/16 01:12:55;;;;;;;12.20;4.05;;;10.10;98.60;;;;;;5026742;28;20544;-71
2022/09/16 01:15:25;;;;;;;10.10;3.72;;;10.10;98.60;;;;;;5029307;28;20037;-71
2022/09/16 01:18:41;;;;;;;11.00;4.15;;;10.00;98.60;;;;;;5031346;28;20416;-72
2022/09/16 01:21:35;;;;;;;8.88;4.07;;;10.00;98.80;;;;;;4997855;28;20120;-71
2022/09/16 01:24:44;;;;;;;9.27;4.20;;;10.00;98.70;;;;;;5019500;28;20055;-72
2022/09/16 01:27:20;;;;;;;14.10;4.10;;;10.10;98.80;;;;;;4965102;28;20035;-71
2022/09/16 01:30:08;;;;;;;10.40;3.63;;;10.10;98.70;;;;;;5019579;28;20055;-70
2022/09/16 01:33:00;;;;;;;11.40;3.75;;;10.10;98.80;;;;;;5045120;28;20462;-71
2022/09/16 01:35:58;;;;;;;8.80;3.50;;;10.10;98.70;;;;;;5030360;28;20061;-70
2022/09/16 01:38:59;;;;;;;7.32;2.55;;;10.10;98.80;;;;;;5006952;28;20080;-70
2022/09/16 01:41:52;;;;;;;9.05;3.47;;;10.10;98.80;;;;;;5025684;28;20048;-70
2022/09/16 01:44:45;;;;;;;8.68;3.15;;;10.10;98.70;;;;;;5027389;28;20381;-69
2022/09/16 01:47:38;;;;;;;10.63;3.20;;;10.10;98.70;;;;;;5029394;28;20061;-70
2022/09/16 01:50:22;;;;;;;12.88;3.30;;;10.10;98.80;;;;;;5028028;28;20046;-69
2022/09/16 01:53:13;;;;;;;13.10;3.85;;;10.10;98.70;;;;;;5029974;28;20029;-70
2022/09/16 01:55:45;;;;;;;7.00;3.53;;;10.10;98.70;;;;;;5027591;28;20030;-69
2022/09/16 01:58:35;;;;;;;9.02;4.18;;;10.20;98.70;;;;;;5023649;28;20040;-70
2022/09/16 02:01:10;;;;;;;7.57;4.03;;;10.30;98.70;;;;;;5026538;28;20037;-69
2022/09/16 02:03:41;;;;;;;12.60;4.00;;;10.30;98.80;;;;;;5027176;28;20049;-69
2022/09/16 02:06:09;;;;;;;8.32;3.47;;;10.20;98.70;;;;;;5027936;28;20061;-70
2022/09/16 02:09:00;;;;;;;8.82;3.75;;;10.20;98.70;;;;;;5028973;28;20398;-69
2022/09/16 02:11:26;;;;;;;12.68;4.32;;;10.30;98.70;;;;;;5023652;28;20316;-70
2022/09/16 02:14:08;;;;;;;11.18;3.85;;;10.20;98.70;;;;;;5028798;28;20481;-69
2022/09/16 02:16:52;;;;;;;10.45;3.55;;;10.10;98.70;;;;;;5031109;28;20033;-69
2022/09/16 02:19:43;;;;;;;10.82;3.88;;;10.20;98.70;;;;;;5029843;28;20029;-71
2022/09/16 02:22:14;;;;;;;9.52;4.20;;;10.20;98.80;;;;;;5023937;28;20480;-69
2022/09/16 02:24:42;;;;;;;9.80;4.10;;;10.20;98.70;;;;;;5025314;28;20036;-71
2022/09/16 02:27:16;;;;;;;12.15;4.45;;;10.10;98.80;;;;;;5019744;28;20528;-69
2022/09/16 02:29:54;;;;;;;8.82;3.70;;;10.10;98.80;;;;;;5021832;28;20034;-70
2022/09/16 02:32:23;;;;;;;10.68;3.80;;;10.10;98.70;;;;;;5013944;28;20053;-70
2022/09/16 02:34:51;;;;;;;9.38;3.75;;;10.10;98.80;;;;;;5026970;28;20037;-69
2022/09/16 02:37:35;;;;;;;15.90;3.53;;;10.00;98.70;;;;;;5024173;28;20026;-69
2022/09/16 02:40:06;;;;;;;7.65;3.60;;;9.90;98.80;;;;;;5021103;28;20030;-70
2022/09/16 02:42:32;;;;;;;12.40;3.22;;;9.80;98.80;;;;;;5024369;28;20111;-69
2022/09/16 02:44:59;;;;;;;5.85;2.92;;;9.80;98.80;;;;;;5024247;28;20037;-69
2022/09/16 02:47:31;;;;;;;10.38;3.13;;;9.80;98.80;;;;;;5029903;28;20457;-70
2022/09/16 02:50:00;;;;;;;10.07;2.92;;;9.80;98.80;;;;;;5028997;28;20091;-69
2022/09/16 02:52:37;;;;;;;7.50;2.95;;;9.70;98.80;;;;;;5023140;28;20150;-69
2022/09/16 02:55:36;;;;;;;7.00;2.72;;;9.80;98.90;;;;;;5026663;28;20091;-70
2022/09/16 02:58:01;;;;;;;8.35;2.90;;;9.80;98.90;;;;;;5018480;28;20025;-69
2022/09/16 03:00:30;;;;;;;11.98;3.15;;;9.80;98.90;;;;;;5033425;28;20048;-70
2022/09/16 03:02:56;;;;;;;6.95;3.08;;;9.80;98.90;;;;;;5031183;28;20508;-72
2022/09/16 03:05:27;;;;;;;7.80;3.10;;;9.80;98.90;;;;;;5030077;28;20065;-72
2022/09/16 03:07:53;;;;;;;13.10;3.42;;;9.80;98.90;;;;;;5033451;28;20416;-72
2022/09/16 03:10:19;;;;;;;7.88;3.08;;;9.70;98.90;;;;;;5033688;28;20047;-72
2022/09/16 03:12:54;;;;;;;19.25;3.50;;;9.70;99.00;;;;;;5028581;28;20120;-73
2022/09/16 03:15:58;;;;;;;8.57;3.50;;;9.70;98.90;;;;;;5030115;28;20060;-70
2022/09/16 03:18:41;;;;;;;12.35;3.67;;;9.70;99.00;;;;;;5025780;28;20026;-69
2022/09/16 03:21:42;;;;;;;7.88;3.35;;;9.70;99.00;;;;;;5028625;28;20053;-69
2022/09/16 03:24:11;;;;;;;12.85;3.80;;;9.70;99.00;;;;;;4991355;28;20042;-70
2022/09/16 03:26:49;;;;;;;14.98;3.78;;;9.80;99.10;;;;;;5016528;28;20049;-69
2022/09/16 03:29:17;;;;;;;10.68;3.65;;;9.80;99.00;;;;;;5032390;28;20040;-70
2022/09/16 03:32:00;;;;;;;11.00;4.18;;;9.80;99.10;;;;;;5032207;28;20099;-69
2022/09/16 03:34:32;;;;;;;9.40;3.38;;;9.90;99.10;;;;;;5031230;28;20128;-71
2022/09/16 03:37:03;;;;;;;9.98;3.50;;;9.90;99.10;;;;;;5031828;28;20030;-71
2022/09/16 03:39:29;;;;;;;;;;;9.90;99.10;;;;;;5026814;28;20044;-71
2022/09/16 03:42:03;;;;;;;7.28;3.20;;;10.00;99.20;;;;;;5029602;28;19939;-72
2022/09/16 03:44:34;;;;;;;7.32;3.10;;;10.00;99.10;;;;;;5031452;28;20065;-73
2022/09/16 03:47:00;;;;;;;;;;;9.90;99.10;;;;;;5033634;28;20041;-71
2022/09/16 03:49:26;;;;;;;12.50;3.97;;;9.90;99.10;;;;;;5028486;28;20455;-71
2022/09/16 03:51:51;;;;;;;10.07;4.30;;;9.90;99.10;;;;;;5029276;28;20033;-71
2022/09/16 03:54:17;;;;;;;12.68;5.10;;;9.90;99.10;;;;;;5026032;28;20053;-70
2022/09/16 03:56:42;;;;;;;14.07;5.13;;;9.90;99.20;;;;;;5021504;28;20112;-71
2022/09/16 03:59:08;;;;;;;18.15;5.78;;;9.80;99.10;;;;;;5027175;28;20041;-71
2022/09/16 04:01:33;;;;;;;11.15;6.28;;;9.70;99.10;;;;;;5026550;28;20072;-71
2022/09/16 04:03:59;;;;;;;17.50;7.22;;;9.70;99.10;;;;;;5026667;28;20037;-71
2022/09/16 04:06:24;;;;;;;11.10;7.03;;;9.70;99.20;;;;;;5029957;28;20037;-71
2022/09/16 04:08:50;;;;;;;13.15;6.75;;;9.70;99.30;;;;;;5032344;28;20112;-70
2022/09/16 04:11:16;;;;;;;11.82;6.60;;;9.70;99.30;;;;;;5027784;28;20079;-72
2022/09/16 04:13:41;;;;;;;15.15;6.47;;;9.80;99.20;;;;;;5031036;28;20117;-71
2022/09/16 04:16:07;;;;;;;15.80;7.00;;;9.80;99.30;;;;;;5032198;28;20425;-71
2022/09/16 04:18:33;;;;;;;10.13;4.78;;;9.80;99.20;;;;;;5032643;28;20021;-71
2022/09/16 04:21:01;;;;;;;12.15;5.47;;;9.80;99.30;;;;;;5033629;28;20037;-71
2022/09/16 04:23:28;;;;;;;10.70;4.72;;;9.80;99.30;;;;;;5033104;28;20060;-71
2022/09/16 04:25:57;;;;;;;10.93;5.40;;;9.80;99.20;;;;;;5032111;28;20029;-70
2022/09/16 04:28:24;;;;;;;13.02;5.07;;;9.80;99.20;;;;;;5029205;28;20026;-71
2022/09/16 04:30:50;;;;;;;11.52;4.25;;;9.70;99.20;;;;;;5029294;28;20060;-70
2022/09/16 04:33:16;;;;;;;9.98;4.80;;;9.60;99.30;;;;;;5031451;28;20067;-70
2022/09/16 04:35:42;;;;;;;11.07;4.53;;;9.60;99.20;;;;;;5026880;28;20030;-71
2022/09/16 04:38:07;;;;;;;12.48;4.28;;;9.60;99.20;;;;;;5032308;28;20050;-70
2022/09/16 04:40:33;;;;;;;12.93;4.38;;;9.60;99.30;;;;;;5032372;28;20041;-70
2022/09/16 04:42:58;;;;;;;12.90;4.55;;;9.60;99.10;;;;;;5027035;28;20037;-71
2022/09/16 04:45:24;;;;;;;13.18;4.55;;;9.60;99.30;;;;;;5029550;28;20061;-70
2022/09/16 04:47:55;;;;;;;10.98;4.65;;;9.50;99.20;;;;;;5028254;28;20052;-70
2022/09/16 04:50:21;;;;;;;15.70;4.57;;;9.40;99.10;;;;;;5026974;28;20038;-70
2022/09/16 04:52:46;;;;;;;12.88;4.75;;;9.30;99.30;;;;;;5026899;28;20036;-70
2022/09/16 04:55:12;;;;;;;14.43;4.72;;;9.30;99.20;;;;;;5024927;28;20079;-71
2022/09/16 04:57:37;;;;;;;13.00;4.60;;;9.30;99.30;;;;;;5023799;28;20511;-73
2022/09/16 05:00:03;;;;;;;15.57;4.53;;;9.20;99.20;;;;;;5027009;28;20091;-73
2022/09/16 05:02:29;;;;;;;15.20;5.22;;;9.20;99.30;;;;;;5028858;28;20537;-72
2022/09/16 05:04:55;;;;;;;16.27;4.68;;;9.10;99.30;;;;;;5024359;28;20026;-71
2022/09/16 05:07:20;;;;;;;18.55;4.50;;;9.20;99.30;;;;;;5029412;28;20101;-72
2022/09/16 05:09:46;;;;;;;14.35;4.50;;;9.10;99.30;;;;;;5029794;28;20440;-71
2022/09/16 05:12:11;;;;;;;18.25;4.78;;;9.10;99.30;;;;;;5030224;28;20029;-71
2022/09/16 05:14:37;;;;;;;15.55;4.72;;;9.10;99.30;;;;;;5023882;28;20480;-71
2022/09/16 05:17:02;;;;;;;13.98;4.72;;;9.10;99.30;;;;;;5032042;28;20469;-72
2022/09/16 05:19:28;;;;;;;14.23;4.20;;;9.10;99.30;;;;;;5029251;28;20061;-71
2022/09/16 05:21:53;;;;;;;17.13;4.60;;;9.10;99.40;;;;;;5030502;28;20099;-71
2022/09/16 05:24:19;;;;;;;14.80;4.70;;;9.10;99.40;;;;;;5031194;28;20099;-71
2022/09/16 05:26:44;;;;;;;9.35;4.28;;;9.10;99.40;;;;;;5026977;28;20037;-71
2022/09/16 05:29:12;;;;;;;14.05;3.83;;;9.10;99.50;;;;;;5031049;28;20417;-72
2022/09/16 05:31:40;;;;;;;13.25;3.47;;;9.10;99.30;;;;;;5022481;28;20056;-72
2022/09/16 05:34:10;;;;;;;12.43;3.40;;;9.10;99.40;;;;;;5031874;28;20113;-72
2022/09/16 05:36:40;;;;;;;12.00;3.30;;;9.10;99.40;;;;;;5030144;28;20128;-72
2022/09/16 05:39:06;;;;;;;17.25;3.65;;;9.10;99.40;;;;;;5030559;28;20478;-72
2022/09/16 05:41:32;;;;;;;8.23;3.10;;;9.10;99.40;;;;;;5029764;28;20033;-72
2022/09/16 05:43:59;;;;;;;13.40;3.25;;;9.10;99.40;;;;;;5029746;28;20805;-71
2022/09/16 05:46:25;;;;;;;12.25;3.38;;;9.10;99.40;;;;;;5031578;28;20465;-72
2022/09/16 05:48:50;;;;;;;15.95;3.05;;;9.10;99.50;;;;;;5025344;28;20040;-71
2022/09/16 05:51:18;;;;;;;13.63;3.15;;;9.10;99.50;;;;;;5025675;28;20029;-72
2022/09/16 05:53:45;;;;;;;11.43;3.05;;;9.20;99.50;;;;;;5024314;28;20044;-71
2022/09/16 05:56:14;;;;;;;9.77;2.78;;;9.30;99.60;;;;;;5021962;28;20075;-72
2022/09/16 05:58:40;;;;;;;10.57;2.85;;;9.30;99.60;;;;;;5027698;28;20033;-72
2022/09/16 06:01:08;;;;;;;9.90;3.38;;;9.40;99.60;;;;;;5027000;28;20057;-71
2022/09/16 06:03:36;;;;;;;11.80;3.03;;;9.40;99.50;;;;;;5024022;28;20025;-72
2022/09/16 06:06:04;;;;;;;10.48;2.92;;;9.50;99.60;;;;;;5029518;28;20067;-71
2022/09/16 06:08:32;;;;;;;13.38;2.90;;;9.60;99.60;;;;;;5030809;28;20040;-72
2022/09/16 06:11:05;;;;;;;16.27;3.17;;;9.80;99.50;;;;;;5028980;28;20030;-73
2022/09/16 06:13:31;;;;;;;9.18;2.80;;;9.90;99.50;;;;;;5025456;28;20386;-72
2022/09/16 06:15:57;;;;;;;11.80;2.25;;;10.00;99.50;;;;;;5033871;28;20087;-71
2022/09/16 06:18:25;;;;;;;12.25;2.85;;;10.00;99.30;;;;;;5032827;28;20029;-72
2022/09/16 06:20:50;;;;;;;10.75;2.90;;;10.00;99.30;;;;;;5029532;28;20044;-72
2022/09/16 06:23:16;;;;;;;13.23;2.78;;;9.90;99.20;;;;;;5033124;28;20030;-72
2022/09/16 06:25:42;;;;;;;6.68;2.60;;;9.80;99.20;;;;;;5029048;28;20037;-71
2022/09/16 06:28:10;;;;;;;16.60;2.83;;;9.80;99.10;;;;;;5023034;28;20033;-72
2022/09/16 06:30:39;;;;;;;8.15;2.33;;;9.80;99.10;;;;;;5027048;28;20029;-72
2022/09/16 06:33:04;;;;;;;8.38;2.33;;;10.00;99.10;;;;;;5034691;28;20029;-71
2022/09/16 06:35:30;;;;;;;14.38;2.38;;;10.00;99.00;;;;;;5030905;28;20389;-72
2022/09/16 06:37:56;;;;;;;13.32;2.78;;;10.10;99.00;;;;;;5031319;28;20041;-72
2022/09/16 06:40:21;;;;;;;10.77;2.88;;;10.10;98.90;;;;;;5034002;28;20567;-72
2022/09/16 06:42:47;;;;;;;8.35;2.22;;;10.10;98.80;;;;;;5030863;28;20029;-73
2022/09/16 06:45:12;;;;;;;8.43;2.60;;;10.10;98.70;;;;;;5034919;28;20036;-72
2022/09/16 06:47:38;;;;;;;8.38;2.33;;;10.20;98.70;;;;;;5036611;28;20120;-71
2022/09/16 06:50:04;;;;;;;14.77;3.00;;;10.30;98.70;;;;;;5033343;28;20060;-72
2022/09/16 06:52:30;;;;;;;16.77;2.80;;;10.40;98.60;;;;;;5034898;28;20041;-73
2022/09/16 06:54:55;;;;;;;9.57;2.75;;;10.30;98.40;;;;;;5033746;28;20045;-72
2022/09/16 06:57:22;;;;;;;10.45;2.58;;;10.30;98.30;;;;;;5033278;28;20033;-72
2022/09/16 06:59:51;;;;;;;9.88;2.40;;;10.30;98.10;;;;;;5039799;28;20029;-72
2022/09/16 07:02:18;;;;;;;7.28;2.05;;;10.40;98.20;;;;;;5032086;28;20131;-72
2022/09/16 07:04:44;;;;;;;12.25;2.17;;;10.40;98.00;;;;;;5033278;28;20033;-73
2022/09/16 07:07:10;;;;;;;11.32;2.08;;;10.50;98.10;;;;;;5033428;28;20389;-72
2022/09/16 07:09:36;;;;;;;9.32;2.40;;;10.50;97.90;;;;;;5034157;28;20064;-72
2022/09/16 07:12:01;;;;;;;8.32;2.35;;;10.60;97.80;;;;;;5029161;28;20017;-73
2022/09/16 07:14:28;;;;;;;10.77;1.83;;;10.60;97.70;;;;;;5032737;28;20109;-72
2022/09/16 07:16:53;;;;;;;13.77;2.05;;;10.70;97.40;;;;;;5045230;28;20034;-72
2022/09/16 07:19:19;;;;;;;5.93;1.80;;;10.70;97.20;;;;;;5036198;28;20358;-72
2022/09/16 07:21:45;;;;;;;6.88;1.73;;;10.80;97.10;;;;;;5034275;28;20115;-72
2022/09/16 07:24:12;;;;;;;14.15;1.90;;;10.80;96.80;;;;;;5033761;28;20030;-72
2022/09/16 07:26:40;;;;;;;10.38;1.77;;;10.90;97.00;;;;;;5031490;28;20087;-71
2022/09/16 07:29:08;;;;;;;7.78;1.58;;;10.90;96.70;;;;;;5031700;28;20029;-72
2022/09/16 07:31:36;;;;;;;8.27;1.38;;;11.00;96.50;;;;;;5032938;28;20129;-71
2022/09/16 07:34:03;;;;;;;10.77;1.73;;;11.10;96.10;;;;;;5029424;28;20787;-72
2022/09/16 07:36:32;;;;;;;7.78;1.35;;;11.10;95.90;;;;;;5031774;28;20048;-72
2022/09/16 07:38:58;;;;;;;4.95;1.30;;;11.10;96.10;;;;;;5030632;28;21352;-73
2022/09/16 07:41:26;;;;;;;12.07;2.28;;;11.30;95.60;;;;;;5027803;28;20088;-73
2022/09/16 07:43:54;;;;;;;6.07;1.27;;;11.30;95.60;;;;;;5030103;28;20113;-73
2022/09/16 07:46:19;;;;;;;10.38;1.67;;;11.40;95.60;;;;;;5033886;28;20025;-72
2022/09/16 07:48:47;;;;;;;9.05;1.88;;;11.40;94.80;;;;;;5030728;28;20488;-72
2022/09/16 07:51:16;;;;;;;6.05;1.15;;;11.50;94.30;;;;;;5025963;28;20041;-72
2022/09/16 07:53:42;;;;;;;11.65;1.90;;;11.60;93.80;;;;;;5024787;28;20038;-73
2022/09/16 07:56:13;;;;;;;13.60;1.20;;;11.70;94.00;;;;;;5021901;28;20044;-73
2022/09/16 07:58:40;;;;;;;5.95;1.05;;;11.70;92.80;;;;;;5030740;28;20033;-73
2022/09/16 08:01:06;;;;;;;7.28;1.08;;;11.90;93.00;;;;;;5031864;28;20091;-71
2022/09/16 08:03:33;;;;;;;10.05;1.50;;;11.90;91.90;;;;;;5030443;28;20478;-72
2022/09/16 08:06:00;;;;;;;5.30;1.90;;;12.10;91.30;;;;;;5026697;28;20045;-72
2022/09/16 08:08:26;;;;;;;8.43;1.67;;;12.20;90.80;;;;;;5026429;28;20083;-72
2022/09/16 08:10:54;;;;;;;7.40;1.30;;;12.30;90.20;;;;;;5028980;28;20417;-73
2022/09/16 08:13:19;;;;;;;5.65;1.30;;;12.40;90.90;;;;;;5029207;28;20030;-72
2022/09/16 08:15:45;;;;;;;9.85;1.77;;;12.60;90.10;;;;;;5033331;28;20041;-72
2022/09/16 08:18:10;;;;;;;4.78;1.10;;;12.60;90.00;;;;;;5030507;28;20037;-72
2022/09/16 08:20:36;;;;;;;9.18;1.67;;;12.60;88.40;;;;;;5032315;28;20037;-72
2022/09/16 08:23:01;;;;;;;7.93;1.33;;;12.80;89.40;;;;;;5021341;28;20496;-72
2022/09/16 08:25:27;;;;;;;5.30;1.20;;;12.90;89.10;;;;;;5029535;28;20128;-72
2022/09/16 08:27:52;;;;;;;7.72;1.23;;;12.90;88.50;;;;;;5027838;28;20025;-72
2022/09/16 08:30:18;;;;;;;7.43;1.17;;;13.00;87.50;;;;;;5025602;28;20041;-73
2022/09/16 08:32:43;;;;;;;8.82;0.90;;;13.20;87.60;;;;;;5029213;28;20143;-71
2022/09/16 08:35:09;;;;;;;6.93;1.23;;;13.30;87.10;;;;;;5030541;28;20037;-72
2022/09/16 08:37:35;;;;;;;7.50;1.35;;;13.30;85.70;;;;;;5032279;28;20516;-72
2022/09/16 08:40:01;;;;;;;5.07;0.95;;;13.50;84.90;;;;;;5028100;28;20037;-73
2022/09/16 08:42:57;;;;;;;7.97;1.05;;;13.60;85.20;;;;;;5026278;28;20176;-72
2022/09/16 08:45:41;;;;;;;2.65;0.85;;;13.60;83.90;;;;;;5032023;28;20104;-71
2022/09/16 08:48:26;;;;;;;6.90;1.60;;;13.70;82.00;;;;;;5030946;28;20480;-71
2022/09/16 08:50:52;;;;;;;5.38;1.17;;;13.90;82.20;;;;;;5032205;28;20072;-72
2022/09/16 08:53:50;;;;;;;8.38;1.40;;;14.00;81.60;;;;;;5025556;28;20115;-72
2022/09/16 08:56:20;;;;;;;5.70;1.30;;;14.10;79.70;;;;;;5021343;28;20049;-71
2022/09/16 08:58:49;;;;;;;10.07;1.50;;;14.00;79.80;;;;;;5023189;28;20037;-72
2022/09/16 09:01:22;;;;;;;6.63;0.85;;;14.00;80.30;;;;;;5031926;28;20042;-71
2022/09/16 09:03:48;;;;;;;6.68;0.98;;;13.80;79.90;;;;;;5026454;28;20022;-71
2022/09/16 09:06:40;;;;;;;8.90;1.10;;;13.80;80.10;;;;;;5029877;28;20034;-71
2022/09/16 09:09:26;;;;;;;10.98;1.50;;;14.00;79.30;;;;;;5029484;28;20116;-71
2022/09/16 09:12:01;;;;;;;8.05;1.38;;;14.20;78.50;;;;;;5030584;28;20029;-71
2022/09/16 09:14:44;;;;;;;5.07;1.13;;;14.50;78.00;;;;;;5031678;28;20025;-71
2022/09/16 09:17:33;;;;;;;9.23;1.30;;;14.60;77.90;;;;;;5031926;28;20112;-72
2022/09/16 09:20:20;;;;;;;8.38;1.00;;;14.80;76.90;;;;;;5021466;28;20572;-71
2022/09/16 09:23:08;;;;;;;7.07;1.38;;;14.60;75.90;;;;;;5031622;28;20056;-72
2022/09/16 09:25:44;;;;;;;9.60;1.30;;;14.80;76.80;;;;;;5021153;28;20087;-72
2022/09/16 09:28:29;;;;;;;6.45;0.90;;;15.00;76.40;;;;;;5024099;28;20029;-72
2022/09/16 09:31:26;;;;;;;6.80;0.90;;;15.00;75.90;;;;;;5018167;28;20042;-72
2022/09/16 09:34:11;;;;;;;5.93;1.00;;;15.00;73.40;;;;;;5029465;28;20030;-71
2022/09/16 09:37:08;;;;;;;6.10;1.15;;;15.30;74.40;;;;;;5030083;28;20029;-72
2022/09/16 09:39:58;;;;;;;7.18;1.48;;;15.20;72.40;;;;;;5028595;28;20033;-72
2022/09/16 09:42:28;;;;;;;7.38;1.08;;;15.40;71.90;;;;;;5029339;28;20037;-71
2022/09/16 09:45:00;;;;;;;8.48;0.85;;;15.20;71.20;;;;;;5044779;28;20031;-72
2022/09/16 09:47:37;;;;;;;4.00;0.95;;;15.10;72.30;;;;;;5029800;28;20106;-71
2022/09/16 09:50:24;;;;;;;4.43;0.80;;;14.70;73.30;;;;;;5030976;28;20034;-71
2022/09/16 09:53:10;;;;;;;5.38;0.95;;;14.70;74.20;;;;;;5030917;28;20029;-71
2022/09/16 09:55:37;;;;;;;7.25;1.48;;;15.40;71.20;;;;;;5029989;28;20056;-71
2022/09/16 09:58:14;;;;;;;6.03;1.20;;;15.30;69.90;;;;;;5029331;28;20037;-72
2022/09/16 10:00:40;;;;;;;5.70;1.05;;;15.50;69.40;;;;;;5031212;28;20048;-71
2022/09/16 10:03:10;;;;;;;5.80;1.10;;;15.40;68.70;;;;;;5030175;28;20037;-71
2022/09/16 10:05:36;;;;;;;6.20;1.17;;;15.30;69.10;;;;;;5020031;28;20474;-72
2022/09/16 10:08:34;;;;;;;6.68;1.20;;;15.50;70.80;;;;;;5031444;28;20041;-71
2022/09/16 10:11:13;;;;;;;6.90;1.30;;;15.20;69.90;;;;;;5021242;28;20053;-72
2022/09/16 10:13:48;;;;;;;7.90;1.25;;;15.30;69.50;;;;;;5030725;28;20486;-71
2022/09/16 10:16:17;;;;;;;5.43;1.00;;;15.30;67.70;;;;;;5032039;28;20416;-71
2022/09/16 10:18:43;;;;;;;7.03;1.17;;;15.60;67.90;;;;;;5030375;28;20045;-71
2022/09/16 10:21:12;;;;;;;11.00;1.25;;;15.80;67.10;;;;;;5029782;28;20054;-71
2022/09/16 10:23:38;;;;;;;7.57;1.27;;;16.50;68.50;;;;;;5030567;28;20112;-72
2022/09/16 10:26:03;;;;;;;7.28;1.02;;;16.70;63.60;;;;;;5031052;28;20121;-71
2022/09/16 10:28:28;;;;;;;5.47;1.10;;;16.60;63.00;;;;;;5029620;28;20465;-71
2022/09/16 10:30:57;;;;;;;5.05;0.93;;;16.10;65.10;;;;;;5031492;28;20042;-71
2022/09/16 10:33:27;;;;;;;7.40;1.02;;;15.80;66.30;;;;;;5029710;28;20095;-72
2022/09/16 10:35:57;;;;;;;4.60;0.60;;;15.30;68.30;;;;;;5028217;28;20124;-72
2022/09/16 10:38:26;;;;;;;6.22;1.00;;;15.00;72.20;;;;;;5031265;28;20025;-72
2022/09/16 10:40:59;;;;;;;3.22;0.77;;;13.80;75.90;;;;;;5030974;28;20048;-71
2022/09/16 10:43:28;;;;;;;6.45;1.00;;;13.50;77.00;;;;;;5029808;28;20037;-72
2022/09/16 10:45:54;;;;;;;3.95;0.95;;;13.60;76.70;;;;;;5030543;28;20112;-71
2022/09/16 10:48:24;;;;;;;3.40;0.70;;;13.10;83.60;;;;;;5031298;28;20053;-72
2022/09/16 10:50:56;;;;;;;5.35;1.10;;;12.60;86.10;;;;;;5030413;28;21105;-71
2022/09/16 10:53:33;;;;;;;6.55;0.80;;;12.30;86.20;;;;;;5031257;28;20040;-71
2022/09/16 10:56:02;;;;;;;5.78;0.88;;;12.20;88.10;;;;;;5031377;28;20442;-71
2022/09/16 10:58:28;;;;;;;3.42;0.63;;;12.10;86.70;;;;;;5024724;28;20065;-71
2022/09/16 11:01:20;;;;;;;6.75;1.10;;;12.10;86.60;;;;;;5033678;28;20499;-71
2022/09/16 11:04:05;;;;;;;5.25;1.00;;;12.60;86.60;;;;;;5032254;28;20041;-72
2022/09/16 11:06:48;;;;;;;5.20;0.82;;;12.70;87.50;;;;;;5033744;28;20047;-71
2022/09/16 11:09:42;;;;;;;6.38;1.05;;;12.70;86.00;;;;;;5035080;28;20508;-71
2022/09/16 11:12:44;;;;;;;5.30;0.80;;;13.20;85.20;;;;;;5031619;28;20030;-71
2022/09/16 11:15:26;;;;;;;4.13;0.70;;;13.80;83.10;;;;;;5033831;28;20060;-71
2022/09/16 11:18:19;;;;;;;1.92;0.68;;;14.10;80.70;;;;;;5032058;28;20037;-72
2022/09/16 11:21:00;;;;;;;3.63;0.50;;;14.40;79.10;;;;;;5023946;28;20044;-71
2022/09/16 11:23:41;;;;;;;4.30;0.70;;;14.60;78.20;;;;;;5033337;28;20042;-71
2022/09/16 11:26:37;;;;;;;3.60;0.70;;;15.00;79.20;;;;;;5034026;28;20030;-73
2022/09/16 11:29:17;;;;;;;3.40;0.60;;;15.10;76.60;;;;;;5033406;28;20025;-72
2022/09/16 11:32:10;;;;;;;5.05;0.73;;;15.40;75.60;;;;;;5023027;28;20033;-72
2022/09/16 11:35:07;;;;;;;6.15;0.85;;;15.90;77.30;;;;;;5025951;28;20442;-71
2022/09/16 11:37:49;;;;;;;2.80;0.88;;;16.20;75.00;;;;;;5026403;28;20132;-70
2022/09/16 11:40:49;;;;;;;2.97;0.65;;;16.30;73.20;;;;;;5034052;28;20091;-71
2022/09/16 11:43:36;;;;;;;3.13;0.70;;;16.80;74.40;;;;;;5032282;28;20444;-71
2022/09/16 11:46:37;;;;;;;3.83;0.80;;;16.70;69.70;;;;;;5034681;28;20501;-71
2022/09/16 11:49:15;;;;;;;3.03;0.80;;;17.00;70.90;;;;;;5033941;28;20028;-72
2022/09/16 11:52:11;;;;;;;2.60;0.77;;;17.10;69.30;;;;;;5031178;28;20033;-72
2022/09/16 11:54:55;;;;;;;2.63;0.60;;;17.10;64.60;;;;;;5033801;28;20045;-71
2022/09/16 11:57:26;;;;;;;3.83;0.63;;;17.00;65.10;;;;;;5031956;28;20032;-70
2022/09/16 12:00:00;;;;;;;;;;;16.20;67.50;;;;;;5034207;28;20025;-71
2022/09/16 12:02:47;;;;;;;5.38;0.90;;;15.80;70.90;;;;;;5031872;28;20016;-72
2022/09/16 12:05:26;;;;;;;5.10;0.60;;;15.60;73.40;;;;;;5030250;28;20025;-71
2022/09/16 12:08:27;;;;;;;7.47;0.90;;;15.00;75.70;;;;;;5032518;28;20033;-71
2022/09/16 12:10:56;;;;;;;6.15;1.00;;;14.50;79.70;;;;;;5032770;28;20036;-70
2022/09/16 12:13:28;;;;;;;4.03;0.80;;;13.70;82.00;;;;;;5030295;28;20116;-71
2022/09/16 12:16:05;;;;;;;2.88;0.40;;;13.30;84.60;;;;;;5033367;28;20371;-70
2022/09/16 12:18:41;;;;;;;4.72;0.63;;;13.30;85.20;;;;;;5032753;28;20025;-70
2022/09/16 12:21:14;;;;;;;5.32;0.68;;;13.30;85.60;;;;;;5025150;28;20141;-71
2022/09/16 12:23:44;;;;;;;4.00;0.68;;;13.40;85.60;;;;;;5033304;28;20091;-70
2022/09/16 12:26:21;;;;;;;4.25;1.08;;;13.90;86.00;;;;;;5026243;28;20403;-72
2022/09/16 12:28:58;;;;;;;4.80;0.90;;;14.80;82.90;;;;;;5031813;28;20112;-70
2022/09/16 12:31:45;;;;;;;2.83;0.65;;;15.40;80.00;;;;;;5033519;28;20041;-69
2022/09/16 12:34:28;;;;;;;2.58;0.43;;;15.80;77.40;;;;;;5033360;28;20037;-69
2022/09/16 12:37:02;;;;;;;4.40;0.82;;;16.50;76.50;;;;;;5030564;28;20416;-69
2022/09/16 12:39:28;;;;;;;6.28;0.93;;;16.50;71.00;;;;;;5032008;28;20025;-70
2022/09/16 12:42:25;;;;;;;5.72;0.85;;;16.50;69.60;;;;;;5031505;28;20070;-70
2022/09/16 12:45:22;;;;;;;5.68;0.80;;;16.50;69.10;;;;;;5032240;28;20538;-69
2022/09/16 12:48:15;;;;;;;1.38;0.40;;;16.80;70.10;;;;;;5030999;28;20033;-70
2022/09/16 12:51:02;;;;;;;2.25;0.50;;;17.00;70.20;;;;;;5029427;28;20025;-71
2022/09/16 12:53:59;;;;;;;2.63;0.60;;;17.40;67.30;;;;;;5028099;28;20033;-69
2022/09/16 12:56:50;;;;;;;4.93;0.88;;;17.60;64.90;;;;;;5018607;28;20083;-71
2022/09/16 13:00:01;;;;;;;4.15;0.70;;;17.50;65.40;;;;;;5032612;28;20033;-70
2022/09/16 13:02:34;;;;;;;5.57;0.90;;;17.50;67.90;;;;;;5019537;28;20097;-70
2022/09/16 13:05:11;;;;;;;5.85;1.08;;;17.20;66.00;;;;;;5023079;28;20369;-70
2022/09/16 13:07:37;;;;;;;9.48;1.20;;;16.60;68.50;;;;;;5030752;28;20026;-69
2022/09/16 13:10:06;;;;;;;6.85;1.17;;;16.40;68.70;;;;;;5031436;28;20036;-70
2022/09/16 13:12:33;;;;;;;6.07;1.25;;;16.00;70.30;;;;;;5029490;28;20049;-70
2022/09/16 13:15:02;;;;;;;8.25;1.00;;;15.90;70.30;;;;;;5030843;28;20034;-70
2022/09/16 13:17:33;;;;;;;7.13;1.00;;;15.40;71.50;;;;;;5032139;28;20029;-69
2022/09/16 13:20:32;;;;;;;6.40;1.08;;;14.90;76.70;;;;;;5031327;28;20382;-70